Time;durP1;ratioP1;P1;durP2;ratioP2;P2;SDS_P1;SDS_P2;PMS_P1;PMS_P2;Temp;Humidity;BMP_temperature;BMP_pressure;BME280_temperature;BME280_humidity;BME280_pressure;Samples;Min_cycle;Max_cycle;Signal;HPM_P1;HPM_P2
2022/11/23 00:03:30;;;;;;;11.25;4.00;;;;;;;13.43;82.45;100206.00;6346721;22;20080;-95
2022/11/23 00:06:15;;;;;;;13.13;3.60;;;;;;;13.22;82.07;100169.81;6336182;22;20455;-94
2022/11/23 00:08:47;;;;;;;10.77;3.75;;;;;;;13.27;82.00;100162.03;6324289;22;20355;-95
2022/11/23 00:11:23;;;;;;;9.73;3.70;;;;;;;13.32;82.71;100190.28;6338012;22;20091;-94
2022/11/23 00:13:50;;;;;;;12.50;3.88;;;;;;;13.35;82.22;100174.56;6311958;22;20023;-96
2022/11/23 00:16:25;;;;;;;7.95;3.17;;;;;;;13.49;81.98;100197.16;6281931;22;20038;-95
2022/11/23 00:19:02;;;;;;;11.38;4.07;;;;;;;13.36;81.84;100170.81;6323285;22;20022;-96
2022/11/23 00:21:49;;;;;;;13.48;3.75;;;;;;;13.37;82.07;100167.13;6261914;22;20093;-96
2022/11/23 00:24:55;;;;;;;8.00;3.65;;;;;;;13.47;82.11;100193.81;6310616;22;20022;-95
2022/11/23 00:27:34;;;;;;;9.75;3.35;;;;;;;13.15;81.78;100150.00;6336322;22;20109;-94
2022/11/23 00:30:13;;;;;;;10.93;3.33;;;;;;;13.37;82.16;100186.00;6283197;22;20339;-96
2022/11/23 00:32:45;;;;;;;10.20;3.47;;;;;;;13.28;82.54;100166.38;6340958;22;20049;-94
2022/11/23 00:35:18;;;;;;;13.43;3.75;;;;;;;13.28;81.97;100174.50;6345239;22;20123;-95
2022/11/23 00:37:45;;;;;;;12.05;3.70;;;;;;;13.15;81.97;100136.50;6329735;22;20068;-95
2022/11/23 00:47:36;;;;;;;9.52;3.63;;;;;;;13.16;82.67;100132.78;6360073;22;20050;-95
2022/11/23 00:50:10;;;;;;;14.07;3.95;;;;;;;13.41;82.96;100162.16;6358551;22;20005;-94
2022/11/23 00:53:32;;;;;;;13.43;4.00;;;;;;;13.50;83.01;100153.72;6340277;22;20089;-94
2022/11/23 00:56:24;;;;;;;13.07;3.88;;;;;;;13.28;82.53;100134.00;6342778;22;20026;-96
2022/11/23 00:59:42;;;;;;;11.43;4.18;;;;;;;13.62;82.05;100153.22;6340787;22;20086;-94
2022/11/23 01:02:57;;;;;;;12.57;4.00;;;;;;;13.48;81.60;100115.28;6339412;22;20006;-93
2022/11/23 01:16:15;;;;;;;11.88;3.70;;;;;;;13.64;81.97;100118.75;6329431;22;20016;-95
2022/11/23 01:22:25;;;;;;;18.85;4.78;;;;;;;13.59;82.56;100091.50;6307086;22;20010;-95
2022/11/23 01:25:34;;;;;;;18.45;4.95;;;;;;;13.73;82.72;100079.78;6255448;22;20130;-93
2022/11/23 01:28:39;;;;;;;11.07;4.35;;;;;;;13.77;82.82;100085.63;6372005;22;20359;-93
2022/11/23 01:31:42;;;;;;;12.40;4.75;;;;;;;13.79;83.03;100097.91;6367334;22;20403;-93
2022/11/23 01:37:30;;;;;;;15.57;5.35;;;;;;;13.45;83.52;100052.75;6277906;22;20015;-93
2022/11/23 01:39:56;;;;;;;13.55;5.45;;;;;;;13.54;83.79;100056.97;6273649;22;20012;-93
2022/11/23 01:42:54;;;;;;;21.48;6.47;;;;;;;13.65;84.19;100061.00;6271562;22;20079;-94
2022/11/23 01:49:03;;;;;;;18.33;5.90;;;;;;;13.71;84.17;100061.03;6277616;22;20014;-93
2022/11/23 01:51:42;;;;;;;18.13;6.15;;;;;;;13.76;83.34;100044.25;6252624;22;20367;-94
2022/11/23 01:54:46;;;;;;;16.13;5.43;;;;;;;14.05;82.83;100086.47;6226747;22;20102;-92
2022/11/23 01:57:52;;;;;;;14.98;5.82;;;;;;;13.79;82.88;100040.31;6283061;22;20151;-94
2022/11/23 02:03:45;;;;;;;16.98;6.22;;;;;;;13.76;82.83;100046.13;6284757;22;20011;-92
2022/11/23 02:06:19;;;;;;;14.35;5.85;;;;;;;13.82;82.99;100035.38;6228911;22;20019;-92
2022/11/23 02:08:47;;;;;;;15.90;5.95;;;;;;;14.06;82.18;100052.97;6275038;22;20015;-93
2022/11/23 02:11:17;;;;;;;15.70;5.57;;;;;;;14.11;82.12;100055.09;6221260;22;20022;-92
2022/11/23 02:13:51;;;;;;;14.30;5.22;;;;;;;14.15;81.48;100057.19;6258051;22;20023;-91
2022/11/23 02:16:28;;;;;;;13.10;5.35;;;;;;;14.07;81.79;100027.63;6248573;22;20015;-94
2022/11/23 02:19:26;;;;;;;14.98;5.63;;;;;;;14.17;81.57;100037.25;6248017;22;20035;-93
2022/11/23 02:21:55;;;;;;;15.90;4.72;;;;;;;14.05;81.45;100008.06;6183061;23;20013;-92
2022/11/23 02:24:26;;;;;;;13.43;5.03;;;;;;;14.12;81.35;100029.75;6190596;22;20013;-94
2022/11/23 02:26:51;;;;;;;14.63;5.00;;;;;;;13.88;81.66;99985.09;6249452;22;20023;-93
2022/11/23 02:29:23;;;;;;;11.65;5.25;;;;;;;14.15;81.55;100035.56;6222964;22;20424;-94
2022/11/23 02:32:01;;;;;;;12.77;5.70;;;;;;;13.98;81.93;99995.53;6332124;22;20363;-93
2022/11/23 02:34:27;;;;;;;13.57;4.75;;;;;;;14.03;81.46;100004.75;6315251;22;20070;-93
2022/11/23 02:36:55;;;;;;;14.43;5.07;;;;;;;13.88;81.01;99966.19;6343951;22;20057;-94
2022/11/23 02:39:41;;;;;;;16.20;5.05;;;;;;;14.15;80.89;100008.53;6316028;22;20025;-93
2022/11/23 02:42:14;;;;;;;13.43;5.10;;;;;;;14.15;80.66;100024.75;6344708;22;20006;-94
2022/11/23 02:45:02;;;;;;;18.50;4.95;;;;;;;14.05;78.82;100018.88;6340294;22;20018;-94
2022/11/23 02:48:02;;;;;;;12.05;4.03;;;;;;;13.92;78.07;99979.09;6369302;22;20011;-92
2022/11/23 02:50:32;;;;;;;12.38;4.80;;;;;;;13.93;76.69;99974.53;6314596;22;20017;-93
2022/11/23 02:53:14;;;;;;;14.82;5.10;;;;;;;13.92;75.71;99953.94;6342515;22;20005;-94
2022/11/23 02:55:46;;;;;;;13.40;4.63;;;;;;;13.95;75.47;99958.94;6314447;22;20105;-94
2022/11/23 02:58:20;;;;;;;14.90;4.97;;;;;;;14.17;74.95;99978.63;6341800;22;20010;-94
2022/11/23 03:00:51;;;;;;;12.05;4.38;;;;;;;13.96;75.06;99963.31;6316263;22;20017;-94
2022/11/23 03:03:22;;;;;;;10.32;5.05;;;;;;;13.91;75.03;99965.81;6387321;22;20007;-93
2022/11/23 03:05:58;;;;;;;13.65;4.60;;;;;;;13.84;75.30;99965.75;6386975;22;19998;-93
2022/11/23 03:08:47;;;;;;;13.13;5.07;;;;;;;13.88;75.60;99963.47;6371704;22;19994;-94
2022/11/23 03:11:17;;;;;;;14.68;5.15;;;;;;;13.89;76.44;99965.16;6367799;22;20025;-95
2022/11/23 03:14:16;;;;;;;17.65;4.97;;;;;;;13.80;76.86;99944.75;6358635;22;20018;-95
2022/11/23 03:27:23;;;;;;;15.87;5.70;;;;;;;13.77;78.84;99951.38;6271510;22;20068;-95
2022/11/23 03:30:20;;;;;;;13.95;5.47;;;;;;;13.49;78.89;99910.91;6323023;22;20241;-95
2022/11/23 03:53:19;;;;;;;17.07;5.50;;;;;;;13.66;75.66;99887.94;4654160;27;15113966;-96
2022/11/23 03:59:12;;;;;;;14.98;4.32;;;;;;;13.75;74.68;99902.13;5174625;27;20057;-95
2022/11/23 04:02:16;;;;;;;12.07;4.50;;;;;;;13.97;73.55;99919.03;5168771;27;20088;-96
2022/11/23 04:04:48;;;;;;;17.13;4.60;;;;;;;13.78;74.07;99893.59;5183902;27;20018;-93
2022/11/23 04:07:17;;;;;;;15.00;4.50;;;;;;;14.02;74.57;99927.38;5165656;27;20042;-95
2022/11/23 04:10:06;;;;;;;17.13;4.55;;;;;;;13.85;74.69;99893.63;5191338;27;20011;-96
2022/11/23 04:12:56;;;;;;;14.20;5.07;;;;;;;13.93;75.16;99890.78;5152958;27;20050;-96
2022/11/23 04:16:12;;;;;;;13.82;4.80;;;;;;;14.04;75.27;99903.69;5148831;27;20039;-96
2022/11/23 04:19:22;;;;;;;16.25;5.10;;;;;;;13.82;75.24;99857.06;5152521;27;20046;-94
2022/11/23 04:25:11;;;;;;;15.88;4.47;;;;;;;13.83;75.03;99874.09;5182891;27;20057;-95
2022/11/23 04:50:44;;;;;;;16.67;5.38;;;;;;;12.77;84.21;99901.19;5083771;28;20053;-94
2022/11/23 05:09:01;;;;;;;19.95;5.68;;;;;;;12.56;85.79;99880.44;5029851;28;20069;-93
2022/11/23 05:14:51;;;;;;;13.48;5.75;;;;;;;12.28;86.20;99838.09;5015723;28;20045;-93
2022/11/23 05:17:33;;;;;;;16.75;5.60;;;;;;;12.38;86.83;99849.38;4980554;28;20045;-92
2022/11/23 05:24:02;;;;;;;23.95;5.80;;;;;;;12.64;87.28;99878.47;5015614;28;20117;-91
2022/11/23 05:33:11;;;;;;;11.90;4.50;;;;;;;12.51;83.90;99821.72;5014050;28;20046;-92
2022/11/23 05:35:58;;;;;;;12.18;4.38;;;;;;;12.63;84.54;99862.47;5014325;28;20034;-93
2022/11/23 05:38:44;;;;;;;12.80;3.67;;;;;;;12.57;83.71;99847.06;4997101;28;20044;-91
2022/11/23 05:41:32;;;;;;;13.93;4.37;;;;;;;12.69;84.12;99864.41;4991465;28;20115;-96
2022/11/23 05:44:18;;;;;;;11.45;4.30;;;;;;;12.45;83.77;99826.03;4993865;28;20053;-93
2022/11/23 05:46:46;;;;;;;10.93;4.50;;;;;;;12.61;83.83;99834.88;5005564;28;20049;-91
2022/11/23 05:49:31;;;;;;;16.38;4.35;;;;;;;12.82;84.68;99861.78;5005535;28;20054;-94
2022/11/23 05:51:59;;;;;;;13.70;3.95;;;;;;;12.81;82.78;99841.25;4990917;28;20502;-91
2022/11/23 05:54:50;;;;;;;13.95;4.20;;;;;;;12.96;82.55;99864.63;4985374;28;20047;-94
2022/11/23 05:57:21;;;;;;;17.95;3.97;;;;;;;12.98;82.92;99876.03;5029912;28;20045;-93
2022/11/23 05:59:49;;;;;;;13.88;4.15;;;;;;;12.73;83.15;99827.91;4988350;28;20046;-92
2022/11/23 06:02:32;;;;;;;12.38;4.35;;;;;;;12.85;83.27;99833.59;4992016;28;20131;-93
2022/11/23 06:05:38;;;;;;;11.98;4.55;;;;;;;12.85;83.46;99829.06;5019118;28;20118;-94
2022/11/23 06:08:56;;;;;;;13.02;3.70;;;;;;;13.08;82.86;99852.25;5016482;28;20072;-92
2022/11/23 06:11:23;;;;;;;14.50;4.00;;;;;;;13.03;83.37;99857.41;4995473;28;20026;-90
2022/11/23 06:14:13;;;;;;;15.52;4.65;;;;;;;12.92;84.19;99839.03;4962303;28;20054;-93
2022/11/23 06:16:41;;;;;;;16.38;3.70;;;;;;;13.02;83.74;99855.75;4940118;29;20178;-94
2022/11/23 06:19:19;;;;;;;14.80;4.07;;;;;;;12.82;83.41;99818.63;4946148;29;20643;-95
2022/11/23 06:22:14;;;;;;;10.57;3.35;;;;;;;13.08;84.51;99860.34;4964073;28;20111;-92
2022/11/23 06:25:19;;;;;;;15.63;3.92;;;;;;;12.80;84.64;99815.31;4945912;29;20044;-94
2022/11/23 06:28:05;;;;;;;15.18;3.90;;;;;;;12.87;85.49;99834.25;4964882;28;20141;-91
2022/11/23 06:31:03;;;;;;;19.80;5.30;;;;;;;12.84;86.87;99831.94;4953220;29;20066;-96
2022/11/23 06:33:42;;;;;;;19.65;4.43;;;;;;;12.82;87.32;99840.22;4958942;29;20114;-95
2022/11/23 06:36:11;;;;;;;19.52;4.93;;;;;;;12.89;87.42;99833.00;4960575;28;20047;-94
2022/11/23 06:38:40;;;;;;;15.60;4.53;;;;;;;12.93;87.60;99817.28;4953319;28;20499;-93
2022/11/23 06:41:10;;;;;;;14.85;4.68;;;;;;;12.92;87.91;99837.19;4944027;29;20031;-93
2022/11/23 06:43:52;;;;;;;15.85;4.45;;;;;;;12.82;87.57;99785.44;4938198;29;20123;-92
2022/11/23 06:46:26;;;;;;;15.25;4.65;;;;;;;13.05;87.51;99817.56;4956063;29;20046;-94
2022/11/23 06:48:53;;;;;;;22.33;5.53;;;;;;;13.02;88.30;99812.56;4938439;29;20051;-91
2022/11/23 06:52:01;;;;;;;;;;;;;;;13.30;87.91;99842.25;4963448;28;20131;-94
2022/11/23 06:54:46;;;;;;;17.17;4.68;;;;;;;13.11;88.06;99819.50;5016252;28;19995;-93
2022/11/23 06:57:21;;;;;;;17.80;5.18;;;;;;;13.23;87.27;99844.88;5022813;28;20474;-93
2022/11/23 06:59:51;;;;;;;;;;;;;;;13.30;86.46;99832.28;4982977;28;20042;-93
2022/11/23 07:02:53;;;;;;;8.68;3.90;;;;;;;13.37;85.03;99826.06;5002152;28;19921;-96
2022/11/23 07:05:19;;;;;;;12.73;3.20;;;;;;;13.09;83.07;99779.19;5067127;22;20062;-92
2022/11/23 07:08:19;;;;;;;11.57;3.75;;;;;;;13.49;81.93;99840.69;4953837;29;20030;-89
2022/11/23 07:10:45;;;;;;;9.32;3.83;;;;;;;13.30;81.11;99808.00;4972672;28;20061;-91
2022/11/23 07:13:23;;;;;;;9.63;2.85;;;;;;;13.35;79.95;99802.00;4953806;28;20062;-92
2022/11/23 07:15:49;;;;;;;9.07;3.28;;;;;;;13.37;80.09;99790.97;4970592;28;20105;-93
2022/11/23 07:18:19;;;;;;;13.23;3.40;;;;;;;13.38;80.89;99793.50;4932785;28;20051;-93
2022/11/23 07:20:52;;;;;;;11.02;2.78;;;;;;;13.34;80.04;99783.28;4964219;28;20035;-93
2022/11/23 07:23:19;;;;;;;9.70;3.00;;;;;;;13.40;80.56;99804.09;4937532;29;20058;-90
2022/11/23 07:25:50;;;;;;;7.35;2.85;;;;;;;13.46;79.42;99808.69;4928475;29;20043;-94
2022/11/23 07:28:41;;;;;;;9.77;3.10;;;;;;;13.36;79.57;99802.81;4948680;28;20066;-94
2022/11/23 07:31:10;;;;;;;6.57;3.20;;;;;;;13.49;79.63;99824.50;4975099;28;20057;-92
2022/11/23 07:34:09;;;;;;;13.27;3.92;;;;;;;13.51;80.05;99842.16;4952764;28;20076;-91
2022/11/23 07:36:35;;;;;;;12.52;3.35;;;;;;;13.24;81.11;99803.34;4962882;28;20096;-91
2022/11/23 07:39:07;;;;;;;8.95;2.92;;;;;;;13.15;81.31;99801.84;4958568;28;20094;-94
2022/11/23 07:41:51;;;;;;;10.95;3.15;;;;;;;13.26;82.77;99830.97;4960418;28;20049;-93
2022/11/23 07:44:36;;;;;;;17.77;3.47;;;;;;;13.24;83.54;99833.03;4960109;28;20054;-94
2022/11/23 07:50:08;;;;;;;13.27;3.88;;;;;;;13.10;83.22;99799.72;5083327;23;20406;-96
2022/11/23 07:58:49;;;;;;;16.95;4.38;;;;;;;12.99;83.50;99759.81;4984964;28;20081;-96
2022/11/23 08:01:56;;;;;;;14.75;4.20;;;;;;;13.40;83.76;99820.28;4966622;28;20053;-94
2022/11/23 08:04:56;;;;;;;13.50;4.45;;;;;;;13.47;84.10;99816.59;4984085;28;20027;-95
2022/11/23 08:07:28;;;;;;;12.48;4.07;;;;;;;13.25;83.80;99769.09;5011438;28;20493;-96
2022/11/23 08:09:54;;;;;;;15.32;4.70;;;;;;;13.40;84.25;99807.63;4965156;28;20113;-92
2022/11/23 08:12:38;;;;;;;16.15;4.60;;;;;;;13.58;85.34;99815.19;4974807;28;20447;-91
2022/11/23 08:15:27;;;;;;;13.25;4.40;;;;;;;13.78;83.84;99822.53;4995181;28;20030;-93
2022/11/23 08:18:06;;;;;;;18.15;6.13;;;;;;;13.68;83.47;99801.31;4997106;28;20113;-93
2022/11/23 08:20:36;;;;;;;13.82;4.47;;;;;;;13.83;83.40;99795.75;4976163;28;20117;-95
2022/11/23 08:23:08;;;;;;;15.30;4.68;;;;;;;13.69;82.77;99776.78;5013497;28;20050;-93
2022/11/23 08:25:43;;;;;;;15.32;5.53;;;;;;;13.61;84.05;99754.53;4981840;28;20052;-95
2022/11/23 08:28:13;;;;;;;13.80;4.13;;;;;;;13.71;81.59;99769.31;4987527;28;20026;-96
2022/11/23 08:30:41;;;;;;;13.48;3.88;;;;;;;13.83;80.64;99755.22;4965201;28;20058;-95
2022/11/23 08:33:12;;;;;;;16.27;3.70;;;;;;;13.87;80.23;99762.72;4974675;28;20096;-93
2022/11/23 08:35:40;;;;;;;19.92;4.85;;;;;;;13.95;79.65;99756.28;4996671;28;20045;-92
2022/11/23 08:38:21;;;;;;;17.80;4.15;;;;;;;14.09;79.47;99785.00;4969833;28;20030;-91
2022/11/23 08:41:11;;;;;;;27.77;4.60;;;;;;;14.03;79.95;99799.34;4987262;28;20038;-92
2022/11/23 08:43:46;;;;;;;12.60;3.70;;;;;;;13.88;79.25;99777.03;5005251;28;20041;-93
2022/11/23 08:46:17;;;;;;;13.83;3.87;;;;;;;13.81;78.98;99768.09;4990847;28;20426;-94
2022/11/23 08:48:44;;;;;;;18.60;4.50;;;;;;;14.06;79.76;99785.41;4998172;28;20117;-94
2022/11/23 08:51:12;;;;;;;14.57;4.00;;;;;;;14.02;79.28;99775.22;4984181;28;20030;-94
2022/11/23 08:53:39;;;;;;;11.05;3.90;;;;;;;13.94;80.17;99768.13;4969357;28;20049;-93
2022/11/23 08:56:09;;;;;;;11.65;3.60;;;;;;;14.02;79.62;99786.00;4991769;28;20039;-95
2022/11/23 08:58:45;;;;;;;12.18;3.65;;;;;;;13.89;80.83;99786.84;4986217;28;20033;-95
2022/11/23 09:01:12;;;;;;;16.15;4.32;;;;;;;13.83;81.96;99776.81;4975596;28;20583;-92
2022/11/23 09:03:42;;;;;;;14.52;4.40;;;;;;;13.89;82.53;99786.84;4977694;28;20038;-92
2022/11/23 09:06:10;;;;;;;13.05;4.15;;;;;;;13.78;82.30;99768.50;4983663;28;20030;-92
2022/11/23 09:09:02;;;;;;;16.38;4.70;;;;;;;13.98;83.18;99792.84;4968007;28;20046;-94
2022/11/23 09:11:29;;;;;;;10.57;3.95;;;;;;;13.87;83.07;99767.28;4957003;28;20036;-94
2022/11/23 09:13:58;;;;;;;14.77;5.18;;;;;;;13.69;82.55;99744.38;4965309;28;20105;-95
2022/11/23 09:16:27;;;;;;;14.50;5.40;;;;;;;13.68;84.13;99752.69;4985465;28;20528;-94
2022/11/23 09:19:01;;;;;;;16.60;4.65;;;;;;;13.47;83.66;99749.09;4995732;28;20030;-92
2022/11/23 09:21:34;;;;;;;12.93;4.25;;;;;;;13.58;84.15;99755.78;4954470;28;20042;-93
2022/11/23 09:24:03;;;;;;;12.80;4.20;;;;;;;13.50;84.27;99753.25;4996171;28;20391;-92
2022/11/23 09:26:32;;;;;;;12.85;4.07;;;;;;;13.60;84.59;99779.88;4966776;28;20045;-92
2022/11/23 09:29:25;;;;;;;16.58;6.63;;;;;;;13.51;85.64;99765.72;4964052;28;20057;-94
2022/11/23 09:31:51;;;;;;;13.45;4.85;;;;;;;13.42;86.20;99748.03;4995671;28;20125;-94
2022/11/23 09:34:18;;;;;;;14.77;4.55;;;;;;;13.21;86.87;99725.47;4946721;28;20086;-93
2022/11/23 09:36:45;;;;;;;15.35;4.70;;;;;;;13.26;86.87;99752.69;4992465;28;20101;-95
2022/11/23 09:39:16;;;;;;;18.13;5.57;;;;;;;13.08;87.72;99709.22;4976673;28;20030;-94
2022/11/23 09:42:18;;;;;;;14.75;6.18;;;;;;;13.33;88.13;99743.84;4984763;28;20129;-93
2022/11/23 09:45:09;;;;;;;15.98;5.20;;;;;;;13.36;89.27;99759.63;4981407;28;20057;-94
2022/11/23 09:48:01;;;;;;;13.48;5.93;;;;;;;13.14;89.81;99713.00;4980269;28;20093;-92
2022/11/23 09:50:52;;;;;;;16.60;5.60;;;;;;;13.13;89.92;99720.25;4990470;28;20038;-93
2022/11/23 09:53:38;;;;;;;21.75;5.45;;;;;;;13.35;90.18;99737.22;4982726;28;20045;-94
2022/11/23 09:56:10;;;;;;;19.85;5.65;;;;;;;13.22;90.29;99716.34;4977801;28;20038;-94
2022/11/23 09:58:38;;;;;;;17.67;5.28;;;;;;;13.48;90.86;99747.22;4951641;28;20150;-93
2022/11/23 10:01:08;;;;;;;19.98;5.65;;;;;;;13.52;90.29;99733.09;4974321;28;20034;-93
2022/11/23 10:03:39;;;;;;;17.08;5.63;;;;;;;13.56;89.24;99730.84;4959109;28;20058;-93
2022/11/23 10:06:24;;;;;;;18.50;5.90;;;;;;;13.59;89.35;99738.53;4990901;28;20042;-92
2022/11/23 10:09:14;;;;;;;13.93;5.18;;;;;;;13.59;89.32;99748.50;4988034;28;20070;-94
2022/11/23 10:12:08;;;;;;;12.88;6.32;;;;;;;13.63;88.39;99734.41;4987583;28;20034;-92
2022/11/23 10:15:14;;;;;;;14.77;5.65;;;;;;;13.62;88.99;99742.69;4987522;28;20042;-94
2022/11/23 10:17:56;;;;;;;;;;;;;;;13.59;89.05;99738.53;4974741;28;20038;-93
2022/11/23 10:20:37;;;;;;;15.73;6.13;;;;;;;13.62;88.62;99730.00;4997323;28;19925;-93
2022/11/23 10:23:47;;;;;;;17.23;6.13;;;;;;;13.76;89.10;99738.16;4991029;28;20054;-92
2022/11/23 10:26:20;;;;;;;16.35;5.50;;;;;;;13.73;87.83;99715.09;4989175;28;20054;-94
2022/11/23 10:28:49;;;;;;;15.95;5.75;;;;;;;13.75;88.31;99725.69;4971052;28;20185;-93
2022/11/23 10:31:21;;;;;;;19.13;5.40;;;;;;;13.47;88.45;99686.16;4976856;28;20113;-93
2022/11/23 10:34:28;;;;;;;19.75;5.57;;;;;;;13.62;87.35;99685.97;4964256;28;20097;-91
2022/11/23 10:36:55;;;;;;;15.65;6.63;;;;;;;13.78;87.91;99707.19;5002940;28;20085;-94
2022/11/23 10:39:42;;;;;;;19.00;5.80;;;;;;;13.94;87.00;99719.50;4996345;28;20062;-93
2022/11/23 10:42:40;;;;;;;15.27;6.07;;;;;;;13.92;87.52;99699.94;5020642;28;20046;-94
2022/11/23 10:45:15;;;;;;;19.02;7.55;;;;;;;13.71;87.25;99677.47;4987702;28;20116;-93
2022/11/23 10:48:01;;;;;;;14.80;6.32;;;;;;;13.91;86.77;99677.50;4970749;28;20039;-90
2022/11/23 10:50:43;;;;;;;20.95;10.00;;;;;;;14.22;86.95;99694.16;4971571;28;20527;-93
2022/11/23 10:53:27;;;;;;;29.92;12.07;;;;;;;14.22;87.04;99677.94;4987861;28;20061;-93
2022/11/23 10:56:07;;;;;;;14.73;6.25;;;;;;;14.30;85.66;99688.53;4953735;28;20058;-93
2022/11/23 10:58:41;;;;;;;19.83;9.88;;;;;;;14.43;86.29;99701.22;4973270;28;20039;-94
2022/11/23 11:01:15;;;;;;;22.02;7.72;;;;;;;14.26;84.48;99660.25;4961651;28;20062;-95
2022/11/23 11:03:42;;;;;;;20.92;6.93;;;;;;;14.26;84.89;99668.38;4968411;28;20058;-95
2022/11/23 11:06:09;;;;;;;18.58;7.95;;;;;;;14.23;85.50;99658.78;4947947;29;20035;-94
2022/11/23 11:08:59;;;;;;;18.23;9.40;;;;;;;14.55;85.26;99697.69;4953227;28;20023;-93
2022/11/23 11:11:35;;;;;;;16.40;7.60;;;;;;;14.44;85.03;99671.25;4971186;28;20042;-93
2022/11/23 11:14:26;;;;;;;20.30;9.50;;;;;;;14.50;85.72;99665.00;4978348;28;20058;-94
2022/11/23 11:17:03;;;;;;;18.13;6.18;;;;;;;14.51;84.55;99679.34;4992775;28;20019;-90
2022/11/23 11:19:49;;;;;;;21.73;8.93;;;;;;;14.47;84.95;99643.78;4977194;28;20038;-93
2022/11/23 11:22:38;;;;;;;18.30;8.25;;;;;;;14.59;84.97;99640.47;4966276;28;20042;-94
2022/11/23 11:25:17;;;;;;;17.75;6.20;;;;;;;14.71;83.97;99658.53;4952257;28;20514;-94
2022/11/23 11:28:01;;;;;;;17.52;6.90;;;;;;;14.87;83.63;99672.66;4951291;28;20171;-91
2022/11/23 11:30:35;;;;;;;23.00;9.52;;;;;;;14.80;84.11;99669.13;4957279;28;20096;-91
2022/11/23 11:33:12;;;;;;;14.52;7.63;;;;;;;14.96;84.24;99674.91;4933318;28;20110;-92
2022/11/23 11:35:46;;;;;;;22.98;6.60;;;;;;;14.94;83.66;99671.59;4963361;28;20034;-92
2022/11/23 11:38:48;;;;;;;17.90;7.13;;;;;;;14.78;83.85;99643.13;4936780;28;20095;-90
2022/11/23 11:41:15;;;;;;;17.23;6.90;;;;;;;14.78;84.09;99643.13;4962963;28;20463;-91
2022/11/23 11:43:48;;;;;;;16.05;6.78;;;;;;;14.86;84.39;99638.50;4942733;28;20519;-92
2022/11/23 11:46:30;;;;;;;16.38;5.15;;;;;;;14.91;83.13;99650.38;4929690;28;20094;-92
2022/11/23 11:49:13;;;;;;;16.45;5.65;;;;;;;14.83;84.04;99679.53;4925153;28;20022;-91
2022/11/23 11:51:42;;;;;;;13.95;7.07;;;;;;;14.53;84.37;99642.09;4967472;28;20057;-90
2022/11/23 11:54:26;;;;;;;13.38;4.60;;;;;;;14.59;83.49;99689.16;4975615;28;20045;-89
2022/11/23 11:56:56;;;;;;;12.88;4.03;;;;;;;14.25;82.97;99628.84;4991246;28;20034;-89
2022/11/23 11:59:49;;;;;;;12.27;4.65;;;;;;;14.51;83.67;99672.06;4997843;28;20033;-92
2022/11/23 12:02:36;;;;;;;15.93;6.28;;;;;;;14.46;83.93;99631.31;4964570;28;20422;-91
2022/11/23 12:05:15;;;;;;;11.75;5.00;;;;;;;14.50;83.98;99673.13;4978588;28;20468;-91
2022/11/23 12:07:46;;;;;;;11.02;5.20;;;;;;;14.43;84.41;99676.88;4993432;28;20038;-92
2022/11/23 12:10:21;;;;;;;9.50;3.92;;;;;;;14.36;82.43;99685.00;4978116;28;20038;-91
2022/11/23 12:12:47;;;;;;;12.68;4.72;;;;;;;14.06;82.52;99652.16;4965700;28;20041;-92
2022/11/23 12:15:18;;;;;;;;;;;;;;;14.23;82.37;99685.00;4966491;28;20278;-93
2022/11/23 12:18:14;;;;;;;11.07;4.25;;;;;;;13.95;82.20;99661.69;5004010;28;19933;-92
2022/11/23 12:21:05;;;;;;;17.50;5.78;;;;;;;14.01;84.25;99687.91;4980629;28;20104;-92
2022/11/23 12:23:55;;;;;;;8.45;4.07;;;;;;;14.07;82.14;99703.31;5001643;28;20472;-90
2022/11/23 12:26:40;;;;;;;9.90;4.40;;;;;;;14.10;81.40;99702.88;4986445;28;20042;-91
2022/11/23 12:29:32;;;;;;;10.07;3.90;;;;;;;14.17;81.66;99696.66;4997784;28;20022;-93
2022/11/23 12:32:16;;;;;;;13.00;4.18;;;;;;;14.17;81.24;99696.66;4989354;28;20454;-92
2022/11/23 12:35:12;;;;;;;20.08;10.23;;;;;;;14.28;81.00;99693.31;4991138;28;20035;-93
2022/11/23 12:38:14;;;;;;;10.48;3.22;;;;;;;14.06;79.34;99693.50;4983582;28;20030;-93
2022/11/23 12:40:47;;;;;;;7.10;3.10;;;;;;;14.05;79.42;99694.56;4987425;28;20093;-93
2022/11/23 12:43:42;;;;;;;8.73;4.18;;;;;;;13.97;80.18;99678.53;4983741;28;20039;-94
2022/11/23 12:46:12;;;;;;;;;;;;;;;14.15;79.52;99711.19;4993695;28;20042;-90
2022/11/23 12:49:05;;;;;;;12.20;3.33;;;;;;;14.12;79.04;99711.63;4992673;28;19985;-90
2022/11/23 12:52:07;;;;;;;13.30;4.15;;;;;;;14.03;79.62;99707.44;4974927;28;20045;-93
2022/11/23 12:54:59;;;;;;;8.35;3.42;;;;;;;14.04;80.34;99719.91;4956549;28;20038;-91
2022/11/23 12:57:37;;;;;;;8.82;3.90;;;;;;;13.81;79.60;99698.69;5014329;28;20041;-93
2022/11/23 13:00:21;;;;;;;5.03;2.22;;;;;;;13.78;78.85;99692.88;4993732;28;20034;-93
2022/11/23 13:03:24;;;;;;;8.70;2.35;;;;;;;13.86;79.28;99700.75;4968107;28;20136;-92
2022/11/23 13:06:26;;;;;;;9.75;4.75;;;;;;;13.72;79.65;99662.94;5017205;28;20101;-92
2022/11/23 13:09:16;;;;;;;15.50;10.20;;;;;;;14.02;79.89;99672.50;4974896;28;20103;-92
2022/11/23 13:11:50;;;;;;;10.98;5.25;;;;;;;13.99;80.47;99671.06;4992721;28;20047;-93
2022/11/23 13:14:21;;;;;;;10.13;4.05;;;;;;;14.29;80.55;99700.38;4992922;28;20049;-91
2022/11/23 13:17:25;;;;;;;10.38;5.55;;;;;;;14.25;79.98;99704.53;4988851;28;20066;-94
2022/11/23 13:20:10;;;;;;;5.10;2.75;;;;;;;14.17;78.60;99702.06;4982409;28;20117;-92
2022/11/23 13:22:44;;;;;;;5.63;3.03;;;;;;;13.94;78.22;99681.66;4975282;28;20043;-92
2022/11/23 13:25:23;;;;;;;8.20;4.15;;;;;;;14.06;78.81;99684.59;4967468;28;20483;-92
2022/11/23 13:27:58;;;;;;;7.60;3.42;;;;;;;14.33;78.65;99704.34;4969237;28;20038;-91
2022/11/23 13:30:24;;;;;;;5.10;2.20;;;;;;;14.30;76.96;99716.38;4990025;28;20117;-92
2022/11/23 13:33:13;;;;;;;3.28;1.70;;;;;;;14.27;77.22;99707.88;4977174;28;20054;-92
2022/11/23 13:35:50;;;;;;;10.20;4.80;;;;;;;14.35;76.95;99731.97;4967670;28;20042;-92
2022/11/23 13:38:41;;;;;;;6.50;3.58;;;;;;;14.46;77.98;99728.66;4973327;28;20030;-91
2022/11/23 13:41:32;;;;;;;6.47;2.83;;;;;;;14.52;77.45;99725.13;4994346;28;20049;-92
2022/11/23 13:44:11;;;;;;;3.60;2.28;;;;;;;14.44;76.66;99714.50;4999755;28;20026;-93
2022/11/23 13:46:36;;;;;;;6.65;3.40;;;;;;;14.48;76.63;99710.34;4960168;28;20030;-91
2022/11/23 13:49:02;;;;;;;10.65;5.40;;;;;;;14.27;76.62;99692.47;4962485;28;20053;-93
2022/11/23 13:51:29;;;;;;;;;;;;;;;14.61;77.00;99727.63;4963784;28;20110;-91
2022/11/23 13:54:12;;;;;;;6.22;1.80;;;;;;;14.17;74.73;99681.25;4985622;28;19929;-91
2022/11/23 13:56:41;;;;;;;4.57;2.20;;;;;;;14.29;76.00;99716.59;4977736;28;20094;-93
2022/11/23 13:59:33;;;;;;;4.25;2.38;;;;;;;14.47;76.84;99727.63;4977901;28;20090;-93
2022/11/23 14:02:06;;;;;;;3.92;1.63;;;;;;;14.28;74.49;99741.97;4965637;28;20030;-93
2022/11/23 14:04:43;;;;;;;4.45;2.10;;;;;;;14.15;74.35;99722.00;4992444;28;20057;-93
2022/11/23 14:07:22;;;;;;;3.92;1.40;;;;;;;14.07;74.40;99746.53;4959695;28;20057;-91
2022/11/23 14:10:08;;;;;;;4.85;2.33;;;;;;;14.09;75.63;99711.19;4994051;28;20074;-92
2022/11/23 14:12:51;;;;;;;;;;;;;;;14.30;75.46;99742.59;4965160;28;20092;-92
2022/11/23 14:15:21;;;;;;;7.97;3.30;;;;;;;14.05;76.45;99707.25;4989307;28;19924;-93
2022/11/23 14:18:11;;;;;;;2.55;1.40;;;;;;;14.17;74.19;99746.13;4969446;28;20037;-96
2022/11/23 14:21:00;;;;;;;3.95;1.30;;;;;;;14.03;73.96;99752.56;4990056;28;20034;-89
2022/11/23 14:24:06;;;;;;;3.78;1.50;;;;;;;14.17;74.66;99748.00;4995177;28;20122;-94
2022/11/23 14:26:54;;;;;;;3.00;1.77;;;;;;;14.12;75.54;99749.47;4991753;28;20447;-96
2022/11/23 14:29:52;;;;;;;5.60;2.10;;;;;;;14.03;75.40;99745.28;4988658;28;20059;-93
2022/11/23 14:32:20;;;;;;;3.83;2.25;;;;;;;13.91;76.49;99731.56;4992052;28;20045;-91
2022/11/23 14:35:09;;;;;;;4.63;2.20;;;;;;;13.83;76.07;99690.38;4994078;28;20022;-92
2022/11/23 14:38:02;;;;;;;3.47;2.35;;;;;;;14.11;76.56;99742.38;4995615;28;20065;-93
2022/11/23 14:41:06;;;;;;;2.45;1.52;;;;;;;13.87;76.38;99746.50;4991798;28;20045;-91
2022/11/23 14:43:34;;;;;;;5.47;1.80;;;;;;;13.77;76.02;99721.75;4991978;28;20084;-94